createdAt,value
2019-05-16T00:01:33.602Z,31.62
2019-05-16T00:04:04.608Z,31.67
2019-05-16T00:06:38.878Z,31.77
2019-05-16T00:09:09.427Z,31.82
2019-05-16T00:11:40.497Z,31.90
2019-05-16T00:14:11.506Z,31.96
2019-05-16T00:16:42.477Z,32.16
2019-05-16T00:19:13.556Z,32.13
2019-05-16T00:21:44.526Z,32.19
2019-05-16T00:24:18.532Z,32.36
2019-05-16T00:26:49.256Z,32.32
2019-05-16T00:29:20.257Z,32.37
2019-05-16T00:31:51.237Z,32.39
2019-05-16T00:34:22.226Z,32.46
2019-05-16T00:36:53.215Z,32.51
2019-05-16T00:39:24.176Z,32.57
2019-05-16T00:41:55.171Z,32.61
2019-05-16T00:44:28.059Z,32.63
2019-05-16T00:46:58.812Z,32.66
2019-05-16T00:49:29.776Z,32.72
2019-05-16T00:52:00.748Z,32.78
2019-05-16T00:54:32.673Z,32.83
2019-05-16T00:57:08.312Z,32.86
2019-05-16T00:59:39.800Z,32.93
2019-05-16T01:02:10.752Z,32.89
2019-05-16T01:04:41.729Z,32.99
2019-05-16T01:07:12.699Z,33.03
2019-05-16T01:09:43.698Z,33.07
2019-05-16T01:12:14.669Z,33.08
2019-05-16T01:14:47.678Z,33.13
2019-05-16T01:17:18.885Z,33.16
2019-05-16T01:19:51.764Z,33.12
2019-05-16T01:22:22.785Z,33.15
2019-05-16T01:24:53.746Z,33.20
2019-05-16T01:27:24.736Z,33.25
2019-05-16T01:29:55.701Z,33.22
2019-05-16T01:32:29.219Z,33.18
2019-05-16T01:34:59.370Z,33.12
2019-05-16T01:37:30.368Z,33.17
2019-05-16T01:40:01.351Z,33.23
2019-05-16T01:42:32.339Z,33.20
2019-05-16T01:45:04.006Z,33.29
2019-05-16T01:47:34.994Z,33.37
2019-05-16T01:50:09.246Z,33.30
2019-05-16T01:52:41.132Z,33.32
2019-05-16T01:55:12.230Z,33.31
2019-05-16T01:57:43.240Z,33.36
2019-05-16T02:00:15.143Z,33.33
2019-05-16T02:02:48.772Z,33.33
2019-05-16T02:05:19.933Z,33.36
2019-05-16T02:07:50.953Z,33.38
2019-05-16T02:10:21.995Z,33.45
2019-05-16T02:12:53.091Z,33.46
2019-05-16T02:15:24.126Z,33.43
2019-05-16T02:17:55.141Z,33.43
2019-05-16T02:20:28.170Z,33.46
2019-05-16T02:22:58.922Z,33.51
2019-05-16T02:25:29.886Z,33.46
2019-05-16T02:28:02.574Z,33.52
2019-05-16T02:30:33.663Z,33.55
2019-05-16T02:33:04.928Z,33.52
2019-05-16T02:35:35.993Z,33.58
2019-05-16T02:38:06.986Z,33.67
2019-05-16T02:40:41.530Z,33.67
2019-05-16T02:43:12.703Z,33.77
2019-05-16T02:45:43.847Z,33.78
2019-05-16T02:48:14.884Z,33.82
2019-05-16T02:50:45.836Z,33.85
2019-05-16T02:53:23.042Z,33.96
2019-05-16T02:55:54.064Z,33.95
2019-05-16T02:58:25.039Z,34.02
2019-05-16T03:00:56.024Z,34.15
2019-05-16T03:03:26.974Z,34.22
2019-05-16T03:06:01.421Z,34.26
2019-05-16T03:08:32.412Z,34.32
2019-05-16T03:11:03.473Z,34.34
2019-05-16T03:13:37.949Z,34.43
2019-05-16T03:16:11.943Z,34.52
2019-05-16T03:18:44.036Z,34.51
2019-05-16T03:21:14.998Z,34.58
2019-05-16T03:23:46.013Z,34.65
2019-05-16T03:26:16.993Z,34.74
2019-05-16T03:28:48.206Z,34.86
2019-05-16T03:31:24.515Z,34.89
2019-05-16T03:33:58.722Z,34.95
2019-05-16T03:36:25.683Z,35.00
2019-05-16T03:38:56.911Z,35.06
2019-05-16T03:41:30.669Z,35.12
2019-05-16T03:44:01.390Z,35.16
2019-05-16T03:46:32.519Z,35.25
2019-05-16T03:49:03.552Z,35.19
2019-05-16T03:51:34.588Z,35.23
2019-05-16T03:54:05.625Z,35.26
2019-05-16T03:56:36.577Z,35.30
2019-05-16T03:59:10.906Z,35.31
2019-05-16T04:01:41.284Z,35.33
2019-05-16T04:04:12.417Z,35.31
2019-05-16T04:06:43.349Z,35.36
2019-05-16T04:09:14.331Z,35.40
2019-05-16T04:11:45.332Z,35.43
2019-05-16T04:14:16.281Z,35.43
2019-05-16T04:16:50.897Z,35.51
2019-05-16T04:19:21.128Z,35.54
2019-05-16T04:21:52.313Z,35.51
2019-05-16T04:24:23.271Z,35.60
2019-05-16T04:26:54.228Z,35.65
2019-05-16T04:29:25.227Z,35.66
2019-05-16T04:31:57.654Z,35.67
2019-05-16T04:34:31.115Z,35.69
2019-05-16T04:37:02.073Z,35.67
2019-05-16T04:39:33.040Z,35.70
2019-05-16T04:42:04.006Z,35.68
2019-05-16T04:44:35.595Z,35.67
2019-05-16T04:47:06.539Z,35.70
2019-05-16T04:49:40.963Z,35.73
2019-05-16T04:52:11.320Z,35.71
2019-05-16T04:54:42.521Z,35.73
2019-05-16T04:57:13.547Z,35.77
2019-05-16T04:59:44.531Z,35.75
2019-05-16T05:02:15.498Z,35.85
2019-05-16T05:04:46.446Z,35.94
2019-05-16T05:07:20.438Z,35.94
2019-05-16T05:09:51.368Z,36.17
2019-05-16T05:12:22.509Z,36.04
2019-05-16T05:14:53.523Z,36.05
2019-05-16T05:17:24.503Z,36.03
2019-05-16T05:19:55.470Z,36.07
2019-05-16T05:22:26.442Z,36.16
2019-05-16T05:25:00.173Z,36.16
2019-05-16T05:27:31.096Z,36.18
2019-05-16T05:30:02.076Z,36.17
2019-05-16T05:32:34.067Z,36.23
2019-05-16T05:35:10.496Z,36.26
2019-05-16T05:37:41.925Z,36.30
2019-05-16T05:40:12.964Z,36.41
2019-05-16T05:42:45.635Z,36.48
2019-05-16T05:45:16.819Z,36.57
2019-05-16T05:47:50.497Z,36.89
2019-05-16T05:50:22.526Z,37.23
2019-05-16T05:52:53.626Z,37.36
2019-05-16T05:55:24.637Z,37.63
2019-05-16T05:57:55.618Z,37.86
2019-05-16T06:00:30.151Z,38.10
2019-05-16T06:03:00.443Z,38.02
2019-05-16T06:05:31.458Z,38.27
2019-05-16T06:08:02.454Z,38.49
2019-05-16T06:10:33.492Z,38.46
2019-05-16T06:13:04.492Z,38.61
2019-05-16T06:15:35.499Z,38.59
2019-05-16T06:18:10.821Z,38.77
2019-05-16T06:20:41.961Z,39.05
2019-05-16T06:23:13.913Z,38.92
2019-05-16T06:25:44.895Z,39.14
2019-05-16T06:28:15.874Z,39.10
2019-05-16T06:31:05.176Z,39.05
2019-05-16T06:33:36.206Z,39.31
2019-05-16T06:36:07.205Z,39.22
2019-05-16T06:38:49.627Z,39.39
2019-05-16T06:41:20.133Z,39.61
2019-05-16T06:43:51.197Z,39.84
2019-05-16T06:46:22.193Z,39.89
2019-05-16T06:48:53.194Z,39.98
2019-05-16T06:51:46.976Z,40.16
2019-05-16T06:54:29.925Z,40.42
2019-05-16T06:57:02.643Z,40.39
2019-05-16T06:59:33.643Z,40.33
2019-05-16T07:02:04.682Z,40.26
2019-05-16T07:04:35.678Z,40.36
2019-05-16T07:07:09.499Z,40.33
2019-05-16T07:09:57.329Z,40.73
2019-05-16T07:12:16.886Z,40.84
2019-05-16T07:14:50.500Z,40.97
2019-05-16T07:17:21.635Z,40.75
2019-05-16T07:19:52.851Z,40.97
2019-05-16T07:22:23.823Z,41.00
2019-05-16T07:24:59.830Z,41.23
2019-05-16T07:27:35.187Z,41.42
2019-05-16T07:30:10.409Z,41.61
2019-05-16T07:32:40.972Z,41.88
2019-05-16T07:35:12.224Z,41.97
2019-05-16T07:37:43.260Z,42.23
2019-05-16T07:40:19.581Z,42.19
2019-05-16T07:42:47.921Z,42.26
2019-05-16T07:45:20.403Z,42.17
2019-05-16T07:47:51.598Z,42.59
2019-05-16T07:50:22.564Z,42.64
2019-05-16T07:52:53.543Z,43.09
2019-05-16T07:55:24.500Z,43.03
2019-05-16T07:57:55.559Z,43.37
2019-05-16T08:00:45.890Z,42.93
2019-05-16T08:03:00.062Z,43.29
2019-05-16T08:05:33.401Z,43.43
2019-05-16T08:08:03.675Z,43.79
2019-05-16T08:10:41.825Z,43.88
2019-05-16T08:13:07.353Z,44.10
2019-05-16T08:15:40.663Z,44.20
2019-05-16T08:18:11.491Z,44.29
2019-05-16T08:20:43.743Z,44.36
2019-05-16T08:23:14.824Z,44.85
2019-05-16T08:25:45.826Z,44.81
2019-05-16T08:28:16.923Z,44.71
2019-05-16T08:30:47.895Z,44.73
2019-05-16T08:33:23.318Z,45.27
2019-05-16T08:35:54.338Z,44.81
2019-05-16T08:38:25.349Z,45.45
2019-05-16T08:44:12.178Z,45.61
2019-05-16T08:46:42.564Z,45.77
2019-05-16T08:49:13.671Z,46.03
2019-05-16T08:51:52.109Z,46.39
2019-05-16T08:54:21.500Z,46.48
2019-05-16T08:56:52.543Z,46.63
2019-05-16T08:59:40.909Z,46.58
2019-05-16T09:04:44.643Z,46.76
2019-05-16T09:07:15.874Z,46.76
2019-05-16T09:10:35.348Z,46.98
2019-05-16T09:12:19.547Z,47.19
2019-05-16T09:14:50.517Z,47.23
2019-05-16T09:17:21.505Z,47.48
2019-05-16T09:18:39.761Z,46.91
2019-05-16T09:19:52.503Z,47.55
2019-05-16T09:22:23.476Z,47.56
2019-05-16T09:24:57.984Z,47.61
2019-05-16T09:27:28.842Z,47.59
2019-05-16T09:30:00.684Z,47.85
2019-05-16T09:32:31.665Z,48.32
2019-05-16T09:35:02.756Z,48.52
2019-05-16T09:37:33.704Z,48.95
2019-05-16T09:40:12.310Z,49.16
2019-05-16T09:42:52.332Z,49.44
2019-05-16T09:46:03.211Z,49.57
2019-05-16T09:48:33.502Z,49.87
2019-05-16T09:51:08.189Z,50.12
2019-05-16T09:54:41.933Z,50.39
2019-05-16T10:39:18.676Z,52.72
2019-05-16T10:41:50.695Z,52.59
2019-05-16T10:44:22.041Z,52.76
2019-05-16T10:46:55.071Z,53.07
2019-05-16T10:49:41.807Z,53.01
2019-05-16T11:39:40.599Z,55.07
2019-05-16T11:42:11.604Z,55.11
2019-05-16T11:44:42.625Z,55.25
2019-05-16T11:47:13.704Z,55.13
2019-05-16T11:49:47.434Z,55.21
2019-05-16T11:52:18.053Z,55.31
2019-05-16T11:54:49.498Z,55.39
2019-05-16T11:57:20.492Z,55.39
2019-05-16T11:59:51.516Z,55.52
2019-05-16T12:02:22.519Z,55.70
2019-05-16T12:04:53.511Z,55.71
2019-05-16T12:07:32.323Z,55.90
2019-05-16T12:09:57.255Z,55.75
2019-05-16T12:12:28.248Z,55.84
2019-05-16T12:14:59.234Z,56.02
2019-05-16T12:17:30.350Z,56.16
2019-05-16T12:20:01.381Z,56.11
2019-05-16T12:22:32.384Z,56.26
2019-05-16T12:25:03.380Z,56.24
2019-05-16T12:27:41.703Z,56.59
2019-05-16T12:30:13.806Z,56.57
2019-05-16T12:32:43.921Z,56.49
2019-05-16T12:35:17.375Z,56.57
2019-05-16T12:37:48.198Z,56.25
2019-05-16T12:40:19.643Z,56.44
2019-05-16T12:42:54.095Z,56.33
2019-05-16T12:45:23.414Z,56.26
2019-05-16T12:47:54.404Z,56.15
2019-05-16T12:50:28.327Z,56.16
2019-05-16T12:52:58.893Z,56.05
2019-05-16T12:55:29.896Z,56.09
2019-05-16T12:58:12.485Z,56.16
2019-05-16T13:00:36.846Z,56.05
2019-05-16T13:03:07.379Z,55.78
2019-05-16T13:05:38.807Z,56.00
2019-05-16T13:08:09.838Z,55.98
2019-05-16T13:10:40.833Z,55.61
2019-05-16T13:13:11.862Z,55.47
2019-05-16T13:15:42.919Z,55.25
2019-05-16T13:18:13.921Z,55.11
2019-05-16T13:20:46.775Z,55.55
2019-05-16T13:23:18.406Z,55.32
2019-05-16T13:25:49.610Z,55.25
2019-05-16T13:28:20.634Z,55.01
2019-05-16T13:30:51.651Z,55.12
2019-05-16T13:33:22.677Z,54.85
2019-05-16T13:35:53.775Z,55.27
2019-05-16T13:38:27.647Z,55.38
2019-05-16T13:40:57.541Z,55.67
2019-05-16T13:43:28.553Z,55.62
2019-05-16T13:45:59.557Z,55.99
2019-05-16T13:48:30.591Z,55.99
2019-05-16T13:51:13.911Z,55.66
2019-05-16T13:53:36.855Z,56.07
2019-05-16T13:56:13.002Z,56.04
2019-05-16T13:58:39.953Z,56.23
2019-05-16T14:01:11.013Z,56.24
2019-05-16T14:03:42.065Z,56.24
2019-05-16T14:06:13.076Z,56.47
2019-05-16T14:08:46.676Z,56.53
2019-05-16T14:11:17.268Z,56.73
2019-05-16T14:13:48.501Z,56.98
2019-05-16T14:16:19.534Z,57.13
2019-05-16T14:18:50.543Z,56.99
2019-05-16T14:21:22.905Z,57.20
2019-05-16T14:23:53.933Z,56.81
2019-05-16T14:26:24.986Z,57.28
2019-05-16T14:28:57.691Z,57.33
2019-05-16T14:31:28.680Z,57.53
2019-05-16T14:33:59.682Z,57.60
2019-05-16T14:36:30.686Z,57.52
2019-05-16T14:39:01.707Z,57.66
2019-05-16T14:41:33.175Z,57.83
2019-05-16T14:44:04.192Z,57.85
2019-05-16T14:46:38.361Z,58.05
2019-05-16T14:49:08.496Z,57.68
2019-05-16T14:51:39.476Z,57.74
2019-05-16T14:54:10.505Z,58.09
2019-05-16T14:56:41.505Z,57.72
2019-05-16T14:59:12.535Z,58.14
2019-05-16T15:01:43.503Z,58.24
2019-05-16T15:04:14.530Z,58.33
2019-05-16T15:06:47.048Z,58.37
2019-05-16T15:09:19.055Z,58.52
2019-05-16T15:11:50.102Z,58.42
2019-05-16T15:14:21.093Z,58.69
2019-05-16T15:16:52.193Z,58.58
2019-05-16T15:19:23.169Z,58.66
2019-05-16T15:21:56.764Z,58.84
2019-05-16T15:24:26.966Z,58.77
2019-05-16T15:27:01.940Z,58.77
2019-05-16T15:29:30.724Z,58.94
2019-05-16T15:32:01.723Z,59.13
2019-05-16T15:34:34.729Z,58.94
2019-05-16T15:37:07.822Z,59.11
2019-05-16T15:39:39.039Z,59.18
2019-05-16T15:42:10.065Z,59.37
2019-05-16T15:44:41.093Z,59.32
2019-05-16T15:47:12.095Z,59.18
2019-05-16T15:49:43.093Z,59.04
2019-05-16T15:52:16.597Z,58.77
2019-05-16T15:54:48.401Z,59.02
2019-05-16T15:57:19.466Z,58.68
2019-05-16T15:59:50.413Z,59.30
2019-05-16T16:02:21.467Z,59.44
2019-05-16T16:04:52.544Z,59.12
2019-05-16T16:07:23.520Z,59.26
2019-05-16T16:09:54.554Z,58.98
2019-05-16T16:12:26.601Z,59.35
2019-05-16T16:14:57.640Z,59.25
2019-05-16T16:17:29.313Z,59.45
2019-05-16T16:20:00.538Z,59.33
2019-05-16T16:22:31.642Z,59.60
2019-05-16T16:25:02.636Z,59.52
2019-05-16T16:27:33.717Z,59.37
2019-05-16T16:30:08.297Z,59.57
2019-05-16T16:32:39.325Z,59.73
2019-05-16T16:35:13.730Z,59.82
2019-05-16T16:37:43.144Z,59.98
2019-05-16T16:40:14.416Z,59.50
2019-05-16T16:42:47.527Z,59.68
2019-05-16T16:45:18.871Z,59.61
2019-05-16T16:47:49.882Z,60.06
2019-05-16T16:50:22.509Z,59.86
2019-05-16T16:52:53.530Z,60.10
2019-05-16T16:55:24.563Z,60.04
2019-05-16T16:57:59.366Z,60.38
2019-05-16T17:00:28.394Z,60.34
2019-05-16T17:03:06.199Z,60.08
2019-05-16T17:05:32.147Z,60.45
2019-05-16T17:08:03.190Z,60.41
2019-05-16T17:10:34.221Z,60.58
2019-05-16T17:13:06.814Z,60.42
2019-05-16T17:15:38.130Z,60.59
2019-05-16T17:18:09.154Z,60.51
2019-05-16T17:20:40.153Z,60.53
2019-05-16T17:23:11.248Z,60.64
2019-05-16T17:25:42.257Z,60.83
2019-05-16T17:28:13.283Z,60.46
2019-05-16T17:30:46.872Z,60.35
2019-05-16T17:33:18.296Z,60.36
2019-05-16T17:35:49.680Z,60.71
2019-05-16T17:38:20.743Z,60.35
2019-05-16T17:40:51.723Z,60.46
2019-05-16T17:43:22.832Z,60.70
2019-05-16T17:45:53.793Z,60.81
2019-05-16T17:48:29.029Z,60.71
2019-05-16T17:50:57.507Z,60.74
2019-05-16T17:53:28.554Z,60.75
2019-05-16T17:55:59.549Z,60.46
2019-05-16T17:58:30.650Z,60.50
2019-05-16T18:01:01.690Z,60.58
2019-05-16T18:03:32.703Z,60.69
2019-05-16T18:06:06.167Z,61.01
2019-05-16T18:08:37.612Z,60.96
2019-05-16T18:11:08.944Z,60.91
2019-05-16T18:13:39.914Z,60.97
2019-05-16T18:16:10.983Z,60.69
2019-05-16T18:18:42.003Z,60.62
2019-05-16T18:21:13.554Z,61.00
2019-05-16T18:23:47.079Z,61.06
2019-05-16T18:26:17.471Z,60.85
2019-05-16T18:28:48.516Z,60.66
2019-05-16T18:31:19.527Z,60.66
2019-05-16T18:33:50.547Z,60.11
2019-05-16T18:36:28.967Z,60.49
2019-05-16T18:39:01.458Z,60.38
2019-05-16T18:41:32.637Z,60.71
2019-05-16T18:44:04.818Z,60.34
2019-05-16T18:46:36.308Z,60.54
2019-05-16T18:49:08.422Z,60.29
2019-05-16T18:51:39.392Z,60.53
2019-05-16T18:54:11.448Z,60.62
2019-05-16T18:56:42.441Z,60.51
2019-05-16T18:59:14.076Z,60.31
2019-05-16T19:01:46.858Z,60.27
2019-05-16T19:04:17.838Z,60.48
2019-05-16T19:06:48.893Z,60.19
2019-05-16T19:09:20.950Z,60.37
2019-05-16T19:11:51.928Z,60.54
2019-05-16T19:14:23.372Z,60.50
2019-05-16T19:16:56.589Z,60.37
2019-05-16T19:19:28.267Z,60.33
2019-05-16T19:21:59.486Z,60.41
2019-05-16T19:24:30.703Z,60.16
2019-05-16T19:27:01.663Z,60.34
2019-05-16T19:29:32.630Z,59.99
2019-05-16T19:32:03.620Z,60.39
2019-05-16T19:34:34.578Z,59.94
2019-05-16T19:37:07.035Z,60.25
2019-05-16T19:39:38.154Z,59.89
2019-05-16T19:42:09.187Z,59.77
2019-05-16T19:44:40.145Z,59.86
2019-05-16T19:47:11.165Z,60.03
2019-05-16T19:49:42.131Z,59.68
2019-05-16T19:52:13.112Z,59.47
2019-05-16T19:54:46.942Z,59.08
2019-05-16T19:57:17.551Z,59.04
2019-05-16T19:59:48.659Z,59.36
2019-05-16T20:02:19.633Z,59.65
2019-05-16T20:04:50.613Z,59.56
2019-05-16T20:07:21.603Z,59.60
2019-05-16T20:09:52.579Z,59.54
2019-05-16T20:12:23.555Z,59.49
2019-05-16T20:15:07.682Z,59.34
2019-05-16T20:17:27.208Z,59.20
2019-05-16T20:19:58.186Z,59.24
2019-05-16T20:22:29.143Z,59.03
2019-05-16T20:25:00.113Z,59.50
2019-05-16T20:27:31.089Z,59.25
2019-05-16T20:30:02.084Z,59.63
2019-05-16T20:32:33.052Z,59.94
2019-05-16T20:35:08.937Z,60.13
2019-05-16T20:37:40.261Z,59.91
2019-05-16T20:40:12.644Z,60.08
2019-05-16T20:42:43.801Z,60.27
2019-05-16T20:45:16.936Z,59.93
2019-05-16T20:47:48.135Z,60.23
2019-05-16T20:50:19.271Z,60.29
2019-05-16T20:52:50.268Z,59.84
2019-05-16T20:55:21.373Z,59.81
2019-05-16T20:57:52.400Z,60.03
2019-05-16T21:00:23.494Z,60.23
2019-05-16T21:02:57.366Z,60.37
2019-05-16T21:05:28.118Z,60.57
2019-05-16T21:07:59.327Z,60.40
2019-05-16T21:10:30.377Z,60.41
2019-05-16T21:13:01.403Z,60.28
2019-05-16T21:15:32.437Z,60.34
2019-05-16T21:18:03.413Z,60.39
2019-05-16T21:20:35.207Z,60.05
2019-05-16T21:23:07.297Z,60.38
2019-05-16T21:25:38.527Z,60.20
2019-05-16T21:28:09.569Z,60.34
2019-05-16T21:30:40.659Z,60.54
2019-05-16T21:33:11.703Z,60.61
2019-05-16T21:35:42.728Z,60.18
2019-05-16T21:38:13.743Z,60.42
2019-05-16T21:40:45.375Z,60.35
2019-05-16T21:43:16.899Z,60.67
2019-05-16T21:45:48.112Z,60.71
2019-05-16T21:48:19.376Z,60.78
2019-05-16T21:50:50.581Z,60.54
2019-05-16T21:53:21.602Z,60.73
2019-05-16T21:55:52.584Z,60.47
2019-05-16T21:58:26.737Z,60.53
2019-05-16T22:00:59.457Z,59.97
2019-05-16T22:03:30.555Z,60.46
2019-05-16T22:06:01.583Z,60.75
2019-05-16T22:08:32.671Z,60.90
2019-05-16T22:11:03.947Z,60.96
2019-05-16T22:13:37.005Z,60.96
2019-05-16T22:16:08.385Z,61.04
2019-05-16T22:18:39.419Z,61.03
2019-05-16T22:21:10.417Z,61.13
2019-05-16T22:23:41.422Z,60.94
2019-05-16T22:26:12.459Z,60.95
2019-05-16T22:28:43.542Z,60.70
2019-05-16T22:31:16.486Z,60.97
2019-05-16T22:33:47.647Z,60.91
2019-05-16T22:36:18.730Z,60.81
2019-05-16T22:38:49.810Z,60.63
2019-05-16T22:41:20.810Z,60.84
2019-05-16T22:43:51.816Z,60.76
2019-05-16T22:46:22.782Z,60.49
2019-05-16T22:48:53.829Z,60.38
2019-05-16T22:51:27.021Z,59.99
2019-05-16T22:53:58.806Z,60.25
2019-05-16T22:56:29.950Z,60.33
2019-05-16T22:59:00.978Z,60.43
2019-05-16T23:01:32.106Z,60.34
2019-05-16T23:04:03.185Z,60.23
2019-05-16T23:06:36.238Z,60.28
2019-05-16T23:09:07.695Z,60.46
2019-05-16T23:11:38.683Z,60.49
2019-05-16T23:14:09.762Z,60.51
2019-05-16T23:16:40.776Z,60.07
2019-05-16T23:19:11.837Z,60.10
2019-05-16T23:21:42.920Z,60.11
2019-05-16T23:24:13.937Z,60.15
2019-05-16T23:26:46.851Z,59.95
2019-05-16T23:29:17.661Z,59.72
2019-05-16T23:31:50.831Z,59.69
2019-05-16T23:34:21.484Z,59.59
2019-05-16T23:36:52.665Z,59.45
2019-05-16T23:39:23.711Z,59.51
2019-05-16T23:41:56.921Z,59.86
2019-05-16T23:44:28.168Z,59.75
2019-05-16T23:46:59.235Z,59.65
2019-05-16T23:49:30.381Z,59.66
2019-05-16T23:52:01.371Z,60.06
2019-05-16T23:54:32.419Z,59.60
2019-05-16T23:57:03.424Z,59.87
2019-05-16T23:59:36.908Z,59.79
